createdAt,value
2024-03-05T00:02:32.675Z,87.17
2024-03-05T00:07:38.301Z,87.52
2024-03-05T00:12:43.128Z,88.27
2024-03-05T00:17:47.274Z,88.25
2024-03-05T00:22:53.083Z,88.59
2024-03-05T00:27:57.247Z,87.98
2024-03-05T00:33:04.748Z,89.05
2024-03-05T00:38:18.344Z,88.06
2024-03-05T00:43:26.908Z,86.73
2024-03-05T00:48:31.129Z,86.51
2024-03-05T00:53:37.032Z,86.79
2024-03-05T00:58:41.040Z,86.31
2024-03-05T01:03:49.034Z,87.34
2024-03-05T01:08:54.531Z,87.70
2024-03-05T01:13:59.425Z,87.98
2024-03-05T01:19:03.689Z,87.87
2024-03-05T01:24:12.064Z,86.99
2024-03-05T01:29:18.662Z,85.48
2024-03-05T01:34:22.939Z,86.27
2024-03-05T01:39:30.032Z,86.22
2024-03-05T01:44:35.888Z,85.52
2024-03-05T01:49:40.351Z,85.65
2024-03-05T01:54:46.554Z,86.06
2024-03-05T01:59:50.796Z,86.34
2024-03-05T02:04:56.230Z,85.65
2024-03-05T02:10:08.457Z,85.23
2024-03-05T02:15:14.662Z,85.00
2024-03-05T02:20:18.922Z,84.67
2024-03-05T02:25:24.303Z,84.60
2024-03-05T02:30:28.295Z,84.85
2024-03-05T02:35:32.389Z,84.15
2024-03-05T02:40:37.860Z,84.28
2024-03-05T02:45:42.084Z,83.80
2024-03-05T02:50:48.650Z,83.49
2024-03-05T02:55:54.200Z,84.62
2024-03-05T03:00:58.292Z,85.70
2024-03-05T03:06:03.505Z,85.34
2024-03-05T03:11:09.181Z,84.55
2024-03-05T03:16:17.529Z,84.42
2024-03-05T03:21:23.760Z,84.80
2024-03-05T03:26:29.244Z,84.80
2024-03-05T03:31:33.556Z,84.03
2024-03-05T03:36:38.257Z,83.91
2024-03-05T03:41:44.474Z,83.51
2024-03-05T03:46:51.030Z,83.53
2024-03-05T03:51:55.667Z,82.60
2024-03-05T03:57:01.572Z,82.72
2024-03-05T04:02:06.389Z,82.41
2024-03-05T04:07:11.168Z,81.79
2024-03-05T04:12:16.608Z,81.79
2024-03-05T04:17:20.978Z,81.85
2024-03-05T04:22:25.047Z,81.68
2024-03-05T04:27:31.888Z,81.24
2024-03-05T04:32:36.759Z,81.85
2024-03-05T04:37:42.549Z,80.51
2024-03-05T04:42:50.335Z,81.14
2024-03-05T04:47:54.472Z,81.19
2024-03-05T04:52:59.214Z,81.75
2024-03-05T04:58:06.359Z,81.34
2024-03-05T05:03:10.867Z,81.96
2024-03-05T05:08:15.306Z,82.84
2024-03-05T05:13:21.391Z,84.15
2024-03-05T05:18:25.515Z,84.15
2024-03-05T05:23:29.751Z,84.43
2024-03-05T05:28:35.884Z,83.96
2024-03-05T05:33:40.112Z,83.75
2024-03-05T05:38:45.415Z,83.40
2024-03-05T05:43:53.602Z,83.03
2024-03-05T05:48:57.750Z,83.11
2024-03-05T05:54:03.026Z,83.01
2024-03-05T05:59:10.133Z,82.23
2024-03-05T06:04:14.423Z,81.78
2024-03-05T06:09:28.698Z,82.24
2024-03-05T06:14:34.162Z,81.33
2024-03-05T06:19:40.441Z,81.20
2024-03-05T06:24:44.548Z,81.86
2024-03-05T06:29:51.138Z,81.32
2024-03-05T06:34:55.787Z,80.86
2024-03-05T06:40:00.785Z,80.38
2024-03-05T06:45:08.083Z,78.60
2024-03-05T06:50:20.966Z,78.05
2024-03-05T06:55:52.391Z,77.90
2024-03-05T07:00:58.920Z,76.59
2024-03-05T07:06:08.275Z,76.36
2024-03-05T07:11:12.798Z,75.89
2024-03-05T07:16:19.960Z,75.40
2024-03-05T07:21:26.766Z,75.29
2024-03-05T07:26:34.412Z,75.13
2024-03-05T07:31:40.154Z,75.11
2024-03-05T07:36:45.415Z,75.29
2024-03-05T07:41:50.436Z,74.42
2024-03-05T07:46:55.987Z,74.32
2024-03-05T07:52:02.903Z,73.73
2024-03-05T07:57:07.164Z,73.85
2024-03-05T08:02:14.931Z,72.69
2024-03-05T08:07:19.517Z,69.07
2024-03-05T08:12:23.527Z,65.41
2024-03-05T08:17:29.160Z,62.43
2024-03-05T08:22:35.779Z,61.38
2024-03-05T08:27:40.832Z,60.85
2024-03-05T08:32:47.832Z,60.81
2024-03-05T08:37:52.952Z,59.04
2024-03-05T08:42:57.966Z,58.10
2024-03-05T08:48:03.700Z,58.39
2024-03-05T08:53:09.599Z,57.27
2024-03-05T08:58:14.100Z,55.24
2024-03-05T09:03:19.720Z,53.15
2024-03-05T09:08:27.270Z,51.43
2024-03-05T09:13:33.254Z,50.82
2024-03-05T09:18:39.264Z,50.41
2024-03-05T09:23:43.529Z,48.78
2024-03-05T09:28:47.790Z,44.88
2024-03-05T09:33:54.569Z,44.78
2024-03-05T09:38:58.740Z,41.19
2024-03-05T09:44:04.742Z,42.05
2024-03-05T09:49:21.344Z,40.73
2024-03-05T09:54:26.913Z,39.48
2024-03-05T09:59:30.997Z,40.83
2024-03-05T10:04:43.271Z,41.68
2024-03-05T10:09:48.878Z,41.96
2024-03-05T10:14:54.835Z,43.21
2024-03-05T10:20:01.207Z,40.42
2024-03-05T10:25:15.901Z,43.03
2024-03-05T10:30:26.327Z,54.47
2024-03-05T10:35:34.905Z,62.32
2024-03-05T10:40:39.532Z,65.22
2024-03-05T10:45:46.165Z,67.83
2024-03-05T10:50:54.017Z,68.81
2024-03-05T10:55:58.078Z,70.65
2024-03-05T11:01:03.958Z,68.43
2024-03-05T11:06:13.880Z,69.39
2024-03-05T11:11:21.273Z,67.03
2024-03-05T11:16:28.430Z,69.28
2024-03-05T11:21:43.028Z,69.62
2024-03-05T11:26:47.159Z,70.28
2024-03-05T11:31:52.296Z,70.53
2024-03-05T11:37:13.238Z,70.95
2024-03-05T11:42:20.512Z,71.19
2024-03-05T11:47:25.271Z,70.33
2024-03-05T11:52:31.248Z,69.23
2024-03-05T11:57:35.745Z,69.74
2024-03-05T12:02:40.017Z,72.03
2024-03-05T12:08:00.020Z,72.22
2024-03-05T12:13:06.147Z,71.04
2024-03-05T12:18:12.303Z,69.67
2024-03-05T12:23:40.237Z,70.48
2024-03-05T12:28:43.088Z,72.44
2024-03-05T12:33:47.392Z,73.98
2024-03-05T12:38:53.097Z,71.66
2024-03-05T12:43:57.365Z,70.33
2024-03-05T12:49:02.647Z,74.48
2024-03-05T12:54:12.747Z,77.87
2024-03-05T12:59:22.479Z,81.48
2024-03-05T13:04:27.038Z,83.40
2024-03-05T13:09:32.597Z,85.36
2024-03-05T13:14:36.997Z,88.86
2024-03-05T13:19:41.638Z,91.09
2024-03-05T13:24:47.628Z,93.42
2024-03-05T13:30:01.361Z,92.61
2024-03-05T13:35:14.623Z,95.03
2024-03-05T13:40:20.985Z,94.52
2024-03-05T13:45:25.051Z,94.47
2024-03-05T13:50:30.727Z,95.53
2024-03-05T13:55:36.177Z,94.34
2024-03-05T14:00:40.922Z,92.60
2024-03-05T14:05:45.719Z,90.33
2024-03-05T14:10:55.537Z,90.08
2024-03-05T14:15:59.616Z,90.72
2024-03-05T14:21:06.139Z,91.27
2024-03-05T14:26:13.376Z,91.80
2024-03-05T14:31:18.486Z,92.44
2024-03-05T14:36:23.351Z,92.62
2024-03-05T14:41:29.097Z,94.47
2024-03-05T14:46:34.156Z,94.41
2024-03-05T14:51:38.358Z,92.06
2024-03-05T14:56:43.912Z,85.92
2024-03-05T15:01:50.454Z,84.16
2024-03-05T15:06:57.329Z,83.09
2024-03-05T15:12:05.114Z,78.26
2024-03-05T15:17:09.927Z,78.00
2024-03-05T15:22:14.161Z,77.04
2024-03-05T15:27:23.322Z,76.48
2024-03-05T15:32:28.297Z,78.18
2024-03-05T15:37:34.331Z,85.08
2024-03-05T15:42:42.234Z,87.98
2024-03-05T15:47:48.032Z,89.03
2024-03-05T15:52:53.554Z,89.77
2024-03-05T15:58:09.763Z,92.00
2024-03-05T16:03:14.666Z,91.60
2024-03-05T16:08:21.474Z,92.42
2024-03-05T16:13:31.121Z,93.90
2024-03-05T16:18:35.806Z,94.57
2024-03-05T16:23:41.285Z,91.96
2024-03-05T16:28:47.126Z,91.98
2024-03-05T16:33:51.804Z,89.38
2024-03-05T16:38:55.897Z,89.52
2024-03-05T16:44:03.255Z,90.37
2024-03-05T16:49:09.586Z,89.93
2024-03-05T16:54:15.939Z,89.03
2024-03-05T16:59:21.514Z,89.03
2024-03-05T17:04:29.600Z,86.65
2024-03-05T17:09:33.834Z,86.40
2024-03-05T17:14:42.937Z,85.92
2024-03-05T17:19:48.301Z,86.34
2024-03-05T17:24:53.816Z,85.21
2024-03-05T17:29:59.828Z,85.63
2024-03-05T17:35:05.048Z,84.78
2024-03-05T17:40:10.945Z,84.47
2024-03-05T17:45:17.647Z,84.65
2024-03-05T17:50:23.424Z,84.89
2024-03-05T17:55:28.853Z,86.42
2024-03-05T18:00:42.808Z,86.33
2024-03-05T18:05:47.435Z,87.12
2024-03-05T18:10:52.035Z,86.75
2024-03-05T18:15:57.642Z,86.24
2024-03-05T18:21:01.827Z,87.67
2024-03-05T18:26:07.069Z,91.46
2024-03-05T18:31:15.937Z,92.33
2024-03-05T18:36:20.828Z,94.44
2024-03-05T18:41:24.865Z,94.63
2024-03-05T18:46:30.662Z,94.25
2024-03-05T18:51:36.008Z,93.26
2024-03-05T18:56:40.007Z,90.70
2024-03-05T19:01:46.617Z,91.25
2024-03-05T19:06:50.784Z,90.64
2024-03-05T19:11:55.046Z,91.85
2024-03-05T19:17:00.662Z,90.84
2024-03-05T19:22:06.012Z,88.33
2024-03-05T19:27:13.672Z,90.23
2024-03-05T19:32:20.695Z,91.96
2024-03-05T19:37:26.164Z,92.58
2024-03-05T19:42:31.670Z,92.39
2024-03-05T19:47:37.285Z,90.68
2024-03-05T19:52:41.955Z,90.72
2024-03-05T19:57:46.373Z,92.85
2024-03-05T20:02:52.593Z,88.97
2024-03-05T20:08:01.068Z,90.18
2024-03-05T20:13:05.459Z,90.97
2024-03-05T20:18:11.045Z,89.15
2024-03-05T20:23:15.321Z,88.72
2024-03-05T20:28:19.410Z,91.23
2024-03-05T20:33:24.974Z,89.19
2024-03-05T20:38:29.447Z,88.63
2024-03-05T20:43:33.721Z,87.46
2024-03-05T20:48:39.315Z,88.68
2024-03-05T20:53:44.237Z,87.65
2024-03-05T20:58:48.540Z,88.87
2024-03-05T21:03:56.752Z,88.65
2024-03-05T21:09:01.525Z,88.56
2024-03-05T21:14:05.910Z,87.20
2024-03-05T21:19:11.435Z,87.79
2024-03-05T21:24:16.578Z,89.56
2024-03-05T21:29:20.724Z,89.73
2024-03-05T21:34:26.198Z,87.26
2024-03-05T21:39:30.546Z,88.55
2024-03-05T21:44:41.693Z,88.63
2024-03-05T21:49:48.483Z,88.15
2024-03-05T21:54:53.194Z,86.60
2024-03-05T21:59:57.327Z,88.96
2024-03-05T22:05:02.998Z,90.40
2024-03-05T22:10:08.260Z,91.53
2024-03-05T22:15:12.521Z,92.02
2024-03-05T22:20:18.301Z,92.68
2024-03-05T22:25:22.633Z,90.71
2024-03-05T22:30:27.019Z,91.37
2024-03-05T22:35:33.041Z,91.39
2024-03-05T22:40:38.244Z,92.84
2024-03-05T22:45:43.537Z,92.08
2024-03-05T22:50:52.180Z,89.27
2024-03-05T22:55:56.746Z,89.27
2024-03-05T23:01:05.862Z,89.19
2024-03-05T23:06:18.546Z,86.13
2024-03-05T23:11:25.507Z,86.58
2024-03-05T23:16:29.902Z,86.10
2024-03-05T23:21:35.389Z,86.31
2024-03-05T23:26:39.557Z,86.69
2024-03-05T23:31:43.571Z,85.85
2024-03-05T23:36:49.066Z,85.43
2024-03-05T23:41:54.867Z,86.47
2024-03-05T23:46:59.356Z,88.72
2024-03-05T23:52:06.859Z,88.77
2024-03-05T23:57:11.124Z,91.10
